<?xml version="1.0" encoding="UTF-8"?>
<gpx xmlns="http://www.topografix.com/GPX/1/1" xmlns:xsi="http://www.w3.org/2001/XMLSchema-instance" version="1.1" xsi:schemaLocation="http://www.topografix.com/GPX/1/1 http://www.topografix.com/GPX/1/1/gpx.xsd">
  <metadata>
    <name>Tri The Mountains Sprint Triathlon</name>
  </metadata>
  <trk>
    <name>Tri The Mountains Sprint Triathlon</name>
    <trkseg>
      <trkpt lat="34.870837" lon="-84.280829">
        <ele>522.466623</ele>
        <time>2026-09-20T07:37:19.000Z</time>
      </trkpt>
      <trkpt lat="34.871221" lon="-84.281274">
        <ele>522.466628</ele>
        <time>2026-09-20T07:37:25.000Z</time>
      </trkpt>
      <trkpt lat="34.871761" lon="-84.281974">
        <ele>524.780622</ele>
        <time>2026-09-20T07:37:34.000Z</time>
      </trkpt>
      <trkpt lat="34.871995" lon="-84.282352">
        <ele>526.90207</ele>
        <time>2026-09-20T07:37:38.000Z</time>
      </trkpt>
      <trkpt lat="34.872193" lon="-84.282748">
        <ele>529.042497</ele>
        <time>2026-09-20T07:37:42.000Z</time>
      </trkpt>
      <trkpt lat="34.872384" lon="-84.283265">
        <ele>531.670514</ele>
        <time>2026-09-20T07:37:47.000Z</time>
      </trkpt>
      <trkpt lat="34.872481" lon="-84.283617">
        <ele>533.008935</ele>
        <time>2026-09-20T07:37:50.000Z</time>
      </trkpt>
      <trkpt lat="34.872654" lon="-84.284565">
        <ele>535.221986</ele>
        <time>2026-09-20T07:37:59.000Z</time>
      </trkpt>
      <trkpt lat="34.872718" lon="-84.284676">
        <ele>535.500613</ele>
        <time>2026-09-20T07:38:00.000Z</time>
      </trkpt>
      <trkpt lat="34.872779" lon="-84.284741">
        <ele>535.738878</ele>
        <time>2026-09-20T07:38:01.000Z</time>
      </trkpt>
      <trkpt lat="34.87277" lon="-84.284493">
        <ele>536.286142</ele>
        <time>2026-09-20T07:38:03.000Z</time>
      </trkpt>
      <trkpt lat="34.872802" lon="-84.284205">
        <ele>536.985309</ele>
        <time>2026-09-20T07:38:06.000Z</time>
      </trkpt>
      <trkpt lat="34.872867" lon="-84.283919">
        <ele>537.594282</ele>
        <time>2026-09-20T07:38:09.000Z</time>
      </trkpt>
      <trkpt lat="34.872959" lon="-84.283691">
        <ele>537.669863</ele>
        <time>2026-09-20T07:38:11.000Z</time>
      </trkpt>
      <trkpt lat="34.873187" lon="-84.283286">
        <ele>537.809083</ele>
        <time>2026-09-20T07:38:15.000Z</time>
      </trkpt>
      <trkpt lat="34.873433" lon="-84.282909">
        <ele>537.949102</ele>
        <time>2026-09-20T07:38:19.000Z</time>
      </trkpt>
      <trkpt lat="34.873551" lon="-84.282767">
        <ele>538.011879</ele>
        <time>2026-09-20T07:38:21.000Z</time>
      </trkpt>
      <trkpt lat="34.873846" lon="-84.28254">
        <ele>538.134014</ele>
        <time>2026-09-20T07:38:25.000Z</time>
      </trkpt>
      <trkpt lat="34.87421" lon="-84.282385">
        <ele>538.069723</ele>
        <time>2026-09-20T07:38:29.000Z</time>
      </trkpt>
      <trkpt lat="34.874582" lon="-84.28233">
        <ele>537.596276</ele>
        <time>2026-09-20T07:38:33.000Z</time>
      </trkpt>
      <trkpt lat="34.875048" lon="-84.282335">
        <ele>537.018266</ele>
        <time>2026-09-20T07:38:38.000Z</time>
      </trkpt>
      <trkpt lat="34.875513" lon="-84.282339">
        <ele>536.431427</ele>
        <time>2026-09-20T07:38:43.000Z</time>
      </trkpt>
      <trkpt lat="34.876023" lon="-84.282427">
        <ele>535.15043</ele>
        <time>2026-09-20T07:38:49.000Z</time>
      </trkpt>
      <trkpt lat="34.876406" lon="-84.282558">
        <ele>533.064786</ele>
        <time>2026-09-20T07:38:53.000Z</time>
      </trkpt>
      <trkpt lat="34.877012" lon="-84.282874">
        <ele>529.547756</ele>
        <time>2026-09-20T07:39:00.000Z</time>
      </trkpt>
      <trkpt lat="34.877499" lon="-84.283182">
        <ele>526.68521</ele>
        <time>2026-09-20T07:39:06.000Z</time>
      </trkpt>
      <trkpt lat="34.877803" lon="-84.283349">
        <ele>524.936533</ele>
        <time>2026-09-20T07:39:10.000Z</time>
      </trkpt>
      <trkpt lat="34.878115" lon="-84.283446">
        <ele>523.262794</ele>
        <time>2026-09-20T07:39:14.000Z</time>
      </trkpt>
      <trkpt lat="34.878422" lon="-84.283473">
        <ele>521.558174</ele>
        <time>2026-09-20T07:39:17.000Z</time>
      </trkpt>
      <trkpt lat="34.878778" lon="-84.283393">
        <ele>519.709597</ele>
        <time>2026-09-20T07:39:21.000Z</time>
      </trkpt>
      <trkpt lat="34.879559" lon="-84.283086">
        <ele>516.3017</ele>
        <time>2026-09-20T07:39:30.000Z</time>
      </trkpt>
      <trkpt lat="34.880416" lon="-84.282741">
        <ele>514.240308</ele>
        <time>2026-09-20T07:39:40.000Z</time>
      </trkpt>
      <trkpt lat="34.88121" lon="-84.282454">
        <ele>512.488179</ele>
        <time>2026-09-20T07:39:49.000Z</time>
      </trkpt>
      <trkpt lat="34.881807" lon="-84.28225">
        <ele>511.4017</ele>
        <time>2026-09-20T07:39:56.000Z</time>
      </trkpt>
      <trkpt lat="34.881942" lon="-84.28219">
        <ele>511.164135</ele>
        <time>2026-09-20T07:39:58.000Z</time>
      </trkpt>
      <trkpt lat="34.882049" lon="-84.282131">
        <ele>510.933366</ele>
        <time>2026-09-20T07:39:59.000Z</time>
      </trkpt>
      <trkpt lat="34.882298" lon="-84.281911">
        <ele>510.417181</ele>
        <time>2026-09-20T07:40:02.000Z</time>
      </trkpt>
      <trkpt lat="34.882412" lon="-84.281751">
        <ele>510.120544</ele>
        <time>2026-09-20T07:40:04.000Z</time>
      </trkpt>
      <trkpt lat="34.882507" lon="-84.281524">
        <ele>509.792597</ele>
        <time>2026-09-20T07:40:06.000Z</time>
      </trkpt>
      <trkpt lat="34.883498" lon="-84.278841">
        <ele>514.148807</ele>
        <time>2026-09-20T07:40:33.000Z</time>
      </trkpt>
      <trkpt lat="34.883699" lon="-84.278499">
        <ele>515.235679</ele>
        <time>2026-09-20T07:40:37.000Z</time>
      </trkpt>
      <trkpt lat="34.883926" lon="-84.278191">
        <ele>516.277529</ele>
        <time>2026-09-20T07:40:41.000Z</time>
      </trkpt>
      <trkpt lat="34.885775" lon="-84.275899">
        <ele>528.472265</ele>
        <time>2026-09-20T07:41:10.000Z</time>
      </trkpt>
      <trkpt lat="34.886246" lon="-84.27527">
        <ele>532.810817</ele>
        <time>2026-09-20T07:41:18.000Z</time>
      </trkpt>
      <trkpt lat="34.886423" lon="-84.275038">
        <ele>534.495434</ele>
        <time>2026-09-20T07:41:21.000Z</time>
      </trkpt>
      <trkpt lat="34.886618" lon="-84.274741">
        <ele>536.430475</ele>
        <time>2026-09-20T07:41:24.000Z</time>
      </trkpt>
      <trkpt lat="34.886879" lon="-84.274199">
        <ele>540.019333</ele>
        <time>2026-09-20T07:41:30.000Z</time>
      </trkpt>
      <trkpt lat="34.88725" lon="-84.273312">
        <ele>546.128697</ele>
        <time>2026-09-20T07:41:39.000Z</time>
      </trkpt>
      <trkpt lat="34.887302" lon="-84.273111">
        <ele>547.508301</ele>
        <time>2026-09-20T07:41:41.000Z</time>
      </trkpt>
      <trkpt lat="34.88735" lon="-84.272722">
        <ele>549.827978</ele>
        <time>2026-09-20T07:41:45.000Z</time>
      </trkpt>
      <trkpt lat="34.887336" lon="-84.272372">
        <ele>551.83029</ele>
        <time>2026-09-20T07:41:48.000Z</time>
      </trkpt>
      <trkpt lat="34.887318" lon="-84.27218">
        <ele>552.759639</ele>
        <time>2026-09-20T07:41:50.000Z</time>
      </trkpt>
      <trkpt lat="34.887227" lon="-84.271852">
        <ele>554.397089</ele>
        <time>2026-09-20T07:41:53.000Z</time>
      </trkpt>
      <trkpt lat="34.887141" lon="-84.271645">
        <ele>555.508598</ele>
        <time>2026-09-20T07:41:55.000Z</time>
      </trkpt>
      <trkpt lat="34.887012" lon="-84.271443">
        <ele>556.730432</ele>
        <time>2026-09-20T07:41:57.000Z</time>
      </trkpt>
      <trkpt lat="34.88686" lon="-84.271224">
        <ele>558.142737</ele>
        <time>2026-09-20T07:42:00.000Z</time>
      </trkpt>
      <trkpt lat="34.886316" lon="-84.270465">
        <ele>560.949935</ele>
        <time>2026-09-20T07:42:09.000Z</time>
      </trkpt>
      <trkpt lat="34.886038" lon="-84.269958">
        <ele>559.67154</ele>
        <time>2026-09-20T07:42:15.000Z</time>
      </trkpt>
      <trkpt lat="34.885804" lon="-84.269351">
        <ele>558.244659</ele>
        <time>2026-09-20T07:42:21.000Z</time>
      </trkpt>
      <trkpt lat="34.885583" lon="-84.268362">
        <ele>555.643533</ele>
        <time>2026-09-20T07:42:30.000Z</time>
      </trkpt>
      <trkpt lat="34.885487" lon="-84.267617">
        <ele>553.116951</ele>
        <time>2026-09-20T07:42:37.000Z</time>
      </trkpt>
      <trkpt lat="34.88543" lon="-84.2672">
        <ele>551.721432</ele>
        <time>2026-09-20T07:42:41.000Z</time>
      </trkpt>
      <trkpt lat="34.885464" lon="-84.266537">
        <ele>549.641543</ele>
        <time>2026-09-20T07:42:47.000Z</time>
      </trkpt>
      <trkpt lat="34.885745" lon="-84.264602">
        <ele>547.024291</ele>
        <time>2026-09-20T07:43:05.000Z</time>
      </trkpt>
      <trkpt lat="34.885788" lon="-84.264107">
        <ele>546.766737</ele>
        <time>2026-09-20T07:43:10.000Z</time>
      </trkpt>
      <trkpt lat="34.885789" lon="-84.263794">
        <ele>546.73011</ele>
        <time>2026-09-20T07:43:13.000Z</time>
      </trkpt>
      <trkpt lat="34.885746" lon="-84.263313">
        <ele>546.675515</ele>
        <time>2026-09-20T07:43:17.000Z</time>
      </trkpt>
      <trkpt lat="34.885598" lon="-84.262378">
        <ele>546.566986</ele>
        <time>2026-09-20T07:43:26.000Z</time>
      </trkpt>
      <trkpt lat="34.885558" lon="-84.262109">
        <ele>546.589306</ele>
        <time>2026-09-20T07:43:28.000Z</time>
      </trkpt>
      <trkpt lat="34.885203" lon="-84.259722">
        <ele>547.038307</ele>
        <time>2026-09-20T07:43:50.000Z</time>
      </trkpt>
      <trkpt lat="34.88489" lon="-84.257641">
        <ele>546.864146</ele>
        <time>2026-09-20T07:44:09.000Z</time>
      </trkpt>
      <trkpt lat="34.884779" lon="-84.256992">
        <ele>546.697313</ele>
        <time>2026-09-20T07:44:15.000Z</time>
      </trkpt>
      <trkpt lat="34.884659" lon="-84.256386">
        <ele>546.540917</ele>
        <time>2026-09-20T07:44:21.000Z</time>
      </trkpt>
      <trkpt lat="34.884511" lon="-84.255847">
        <ele>546.396477</ele>
        <time>2026-09-20T07:44:26.000Z</time>
      </trkpt>
      <trkpt lat="34.884321" lon="-84.255336">
        <ele>545.767233</ele>
        <time>2026-09-20T07:44:31.000Z</time>
      </trkpt>
      <trkpt lat="34.884137" lon="-84.254817">
        <ele>545.103885</ele>
        <time>2026-09-20T07:44:36.000Z</time>
      </trkpt>
      <trkpt lat="34.883588" lon="-84.253708">
        <ele>544.458978</ele>
        <time>2026-09-20T07:44:48.000Z</time>
      </trkpt>
      <trkpt lat="34.883169" lon="-84.252887">
        <ele>547.442904</ele>
        <time>2026-09-20T07:44:57.000Z</time>
      </trkpt>
      <trkpt lat="34.883135" lon="-84.252812">
        <ele>547.710884</ele>
        <time>2026-09-20T07:44:58.000Z</time>
      </trkpt>
      <trkpt lat="34.88226" lon="-84.25121">
        <ele>554.20815</ele>
        <time>2026-09-20T07:45:16.000Z</time>
      </trkpt>
      <trkpt lat="34.881486" lon="-84.249787">
        <ele>558.278771</ele>
        <time>2026-09-20T07:45:32.000Z</time>
      </trkpt>
      <trkpt lat="34.881115" lon="-84.249129">
        <ele>557.736139</ele>
        <time>2026-09-20T07:45:39.000Z</time>
      </trkpt>
      <trkpt lat="34.880838" lon="-84.24859">
        <ele>557.306231</ele>
        <time>2026-09-20T07:45:45.000Z</time>
      </trkpt>
      <trkpt lat="34.880474" lon="-84.247965">
        <ele>555.367834</ele>
        <time>2026-09-20T07:45:52.000Z</time>
      </trkpt>
      <trkpt lat="34.879868" lon="-84.24714">
        <ele>551.511342</ele>
        <time>2026-09-20T07:46:02.000Z</time>
      </trkpt>
      <trkpt lat="34.87932" lon="-84.246541">
        <ele>549.04235</ele>
        <time>2026-09-20T07:46:10.000Z</time>
      </trkpt>
      <trkpt lat="34.878742" lon="-84.246024">
        <ele>547.863418</ele>
        <time>2026-09-20T07:46:18.000Z</time>
      </trkpt>
      <trkpt lat="34.878171" lon="-84.245629">
        <ele>546.782283</ele>
        <time>2026-09-20T07:46:25.000Z</time>
      </trkpt>
      <trkpt lat="34.87813" lon="-84.245599">
        <ele>546.707927</ele>
        <time>2026-09-20T07:46:26.000Z</time>
      </trkpt>
      <trkpt lat="34.877691" lon="-84.245341">
        <ele>546.658875</ele>
        <time>2026-09-20T07:46:31.000Z</time>
      </trkpt>
      <trkpt lat="34.877347" lon="-84.245167">
        <ele>546.802032</ele>
        <time>2026-09-20T07:46:35.000Z</time>
      </trkpt>
      <trkpt lat="34.877007" lon="-84.245024">
        <ele>546.949239</ele>
        <time>2026-09-20T07:46:39.000Z</time>
      </trkpt>
      <trkpt lat="34.876541" lon="-84.244867">
        <ele>547.136327</ele>
        <time>2026-09-20T07:46:44.000Z</time>
      </trkpt>
      <trkpt lat="34.876386" lon="-84.244815">
        <ele>547.198869</ele>
        <time>2026-09-20T07:46:46.000Z</time>
      </trkpt>
      <trkpt lat="34.875858" lon="-84.24464">
        <ele>547.193486</ele>
        <time>2026-09-20T07:46:52.000Z</time>
      </trkpt>
      <trkpt lat="34.875567" lon="-84.24455">
        <ele>547.175806</ele>
        <time>2026-09-20T07:46:55.000Z</time>
      </trkpt>
      <trkpt lat="34.87535" lon="-84.244458">
        <ele>547.163436</ele>
        <time>2026-09-20T07:46:58.000Z</time>
      </trkpt>
      <trkpt lat="34.87519" lon="-84.24429">
        <ele>547.150757</ele>
        <time>2026-09-20T07:47:00.000Z</time>
      </trkpt>
      <trkpt lat="34.875123" lon="-84.244161">
        <ele>547.143762</ele>
        <time>2026-09-20T07:47:01.000Z</time>
      </trkpt>
      <trkpt lat="34.875073" lon="-84.244014">
        <ele>547.136136</ele>
        <time>2026-09-20T07:47:02.000Z</time>
      </trkpt>
      <trkpt lat="34.875077" lon="-84.243923">
        <ele>547.132195</ele>
        <time>2026-09-20T07:47:03.000Z</time>
      </trkpt>
      <trkpt lat="34.87514" lon="-84.243574">
        <ele>546.995262</ele>
        <time>2026-09-20T07:47:06.000Z</time>
      </trkpt>
      <trkpt lat="34.875431" lon="-84.242298">
        <ele>544.562073</ele>
        <time>2026-09-20T07:47:18.000Z</time>
      </trkpt>
      <trkpt lat="34.875431" lon="-84.242239">
        <ele>544.452499</ele>
        <time>2026-09-20T07:47:19.000Z</time>
      </trkpt>
      <trkpt lat="34.875929" lon="-84.239971">
        <ele>542.816081</ele>
        <time>2026-09-20T07:47:40.000Z</time>
      </trkpt>
      <trkpt lat="34.876034" lon="-84.239506">
        <ele>542.726174</ele>
        <time>2026-09-20T07:47:44.000Z</time>
      </trkpt>
      <trkpt lat="34.876175" lon="-84.238841">
        <ele>544.050334</ele>
        <time>2026-09-20T07:47:50.000Z</time>
      </trkpt>
      <trkpt lat="34.876229" lon="-84.238427">
        <ele>545.012166</ele>
        <time>2026-09-20T07:47:54.000Z</time>
      </trkpt>
      <trkpt lat="34.876297" lon="-84.237418">
        <ele>547.385849</ele>
        <time>2026-09-20T07:48:03.000Z</time>
      </trkpt>
      <trkpt lat="34.876382" lon="-84.236083">
        <ele>547.952107</ele>
        <time>2026-09-20T07:48:15.000Z</time>
      </trkpt>
      <trkpt lat="34.87652" lon="-84.23563">
        <ele>548.028268</ele>
        <time>2026-09-20T07:48:19.000Z</time>
      </trkpt>
      <trkpt lat="34.876757" lon="-84.235172">
        <ele>548.112024</ele>
        <time>2026-09-20T07:48:24.000Z</time>
      </trkpt>
      <trkpt lat="34.87724" lon="-84.234521">
        <ele>544.585728</ele>
        <time>2026-09-20T07:48:32.000Z</time>
      </trkpt>
      <trkpt lat="34.877431" lon="-84.234186">
        <ele>542.9212</ele>
        <time>2026-09-20T07:48:36.000Z</time>
      </trkpt>
      <trkpt lat="34.877641" lon="-84.233751">
        <ele>540.870133</ele>
        <time>2026-09-20T07:48:41.000Z</time>
      </trkpt>
      <trkpt lat="34.877781" lon="-84.233345">
        <ele>539.122644</ele>
        <time>2026-09-20T07:48:45.000Z</time>
      </trkpt>
      <trkpt lat="34.877862" lon="-84.23297">
        <ele>538.345335</ele>
        <time>2026-09-20T07:48:49.000Z</time>
      </trkpt>
      <trkpt lat="34.877925" lon="-84.231973">
        <ele>536.417971</ele>
        <time>2026-09-20T07:48:58.000Z</time>
      </trkpt>
      <trkpt lat="34.877895" lon="-84.230923">
        <ele>535.125785</ele>
        <time>2026-09-20T07:49:08.000Z</time>
      </trkpt>
      <trkpt lat="34.877606" lon="-84.229552">
        <ele>536.27306</ele>
        <time>2026-09-20T07:49:21.000Z</time>
      </trkpt>
      <trkpt lat="34.877509" lon="-84.228916">
        <ele>537.2048</ele>
        <time>2026-09-20T07:49:27.000Z</time>
      </trkpt>
      <trkpt lat="34.877568" lon="-84.227042">
        <ele>544.287857</ele>
        <time>2026-09-20T07:49:44.000Z</time>
      </trkpt>
      <trkpt lat="34.877643" lon="-84.226608">
        <ele>545.291534</ele>
        <time>2026-09-20T07:49:48.000Z</time>
      </trkpt>
      <trkpt lat="34.87791" lon="-84.225717">
        <ele>546.690655</ele>
        <time>2026-09-20T07:49:57.000Z</time>
      </trkpt>
      <trkpt lat="34.878008" lon="-84.225164">
        <ele>547.526032</ele>
        <time>2026-09-20T07:50:02.000Z</time>
      </trkpt>
      <trkpt lat="34.877989" lon="-84.22496">
        <ele>547.835955</ele>
        <time>2026-09-20T07:50:04.000Z</time>
      </trkpt>
      <trkpt lat="34.877836" lon="-84.224315">
        <ele>547.018592</ele>
        <time>2026-09-20T07:50:10.000Z</time>
      </trkpt>
      <trkpt lat="34.877812" lon="-84.224108">
        <ele>546.554021</ele>
        <time>2026-09-20T07:50:12.000Z</time>
      </trkpt>
      <trkpt lat="34.878122" lon="-84.221022">
        <ele>540.333091</ele>
        <time>2026-09-20T07:50:40.000Z</time>
      </trkpt>
      <trkpt lat="34.878176" lon="-84.220658">
        <ele>539.716965</ele>
        <time>2026-09-20T07:50:43.000Z</time>
      </trkpt>
      <trkpt lat="34.87831" lon="-84.2202">
        <ele>539.44183</ele>
        <time>2026-09-20T07:50:47.000Z</time>
      </trkpt>
      <trkpt lat="34.878512" lon="-84.219745">
        <ele>539.667881</ele>
        <time>2026-09-20T07:50:52.000Z</time>
      </trkpt>
      <trkpt lat="34.879027" lon="-84.218904">
        <ele>540.134193</ele>
        <time>2026-09-20T07:51:02.000Z</time>
      </trkpt>
      <trkpt lat="34.879917" lon="-84.217532">
        <ele>537.97404</ele>
        <time>2026-09-20T07:51:18.000Z</time>
      </trkpt>
      <trkpt lat="34.880039" lon="-84.217297">
        <ele>537.504109</ele>
        <time>2026-09-20T07:51:21.000Z</time>
      </trkpt>
      <trkpt lat="34.880235" lon="-84.216748">
        <ele>536.455003</ele>
        <time>2026-09-20T07:51:26.000Z</time>
      </trkpt>
      <trkpt lat="34.880377" lon="-84.215943">
        <ele>534.074559</ele>
        <time>2026-09-20T07:51:34.000Z</time>
      </trkpt>
      <trkpt lat="34.880584" lon="-84.214757">
        <ele>530.611856</ele>
        <time>2026-09-20T07:51:45.000Z</time>
      </trkpt>
      <trkpt lat="34.880832" lon="-84.21321">
        <ele>530.367157</ele>
        <time>2026-09-20T07:51:59.000Z</time>
      </trkpt>
      <trkpt lat="34.881035" lon="-84.2122">
        <ele>529.726912</ele>
        <time>2026-09-20T07:52:08.000Z</time>
      </trkpt>
      <trkpt lat="34.881156" lon="-84.211697">
        <ele>528.723971</ele>
        <time>2026-09-20T07:52:13.000Z</time>
      </trkpt>
      <trkpt lat="34.881518" lon="-84.210245">
        <ele>525.795455</ele>
        <time>2026-09-20T07:52:27.000Z</time>
      </trkpt>
      <trkpt lat="34.881779" lon="-84.209338">
        <ele>523.818598</ele>
        <time>2026-09-20T07:52:36.000Z</time>
      </trkpt>
      <trkpt lat="34.881861" lon="-84.20877">
        <ele>522.634323</ele>
        <time>2026-09-20T07:52:41.000Z</time>
      </trkpt>
      <trkpt lat="34.881874" lon="-84.208479">
        <ele>522.041111</ele>
        <time>2026-09-20T07:52:44.000Z</time>
      </trkpt>
      <trkpt lat="34.881854" lon="-84.207918">
        <ele>521.860181</ele>
        <time>2026-09-20T07:52:49.000Z</time>
      </trkpt>
      <trkpt lat="34.881602" lon="-84.205877">
        <ele>523.201654</ele>
        <time>2026-09-20T07:53:08.000Z</time>
      </trkpt>
      <trkpt lat="34.881546" lon="-84.205413">
        <ele>524.154437</ele>
        <time>2026-09-20T07:53:12.000Z</time>
      </trkpt>
      <trkpt lat="34.88132" lon="-84.20349">
        <ele>527.908707</ele>
        <time>2026-09-20T07:53:30.000Z</time>
      </trkpt>
      <trkpt lat="34.881307" lon="-84.203106">
        <ele>528.599655</ele>
        <time>2026-09-20T07:53:34.000Z</time>
      </trkpt>
      <trkpt lat="34.881329" lon="-84.202819">
        <ele>529.101931</ele>
        <time>2026-09-20T07:53:37.000Z</time>
      </trkpt>
      <trkpt lat="34.881606" lon="-84.200944">
        <ele>531.550556</ele>
        <time>2026-09-20T07:53:54.000Z</time>
      </trkpt>
      <trkpt lat="34.881681" lon="-84.200573">
        <ele>531.810994</ele>
        <time>2026-09-20T07:53:57.000Z</time>
      </trkpt>
      <trkpt lat="34.881803" lon="-84.200294">
        <ele>532.029404</ele>
        <time>2026-09-20T07:54:00.000Z</time>
      </trkpt>
      <trkpt lat="34.882397" lon="-84.199092">
        <ele>532.521974</ele>
        <time>2026-09-20T07:54:13.000Z</time>
      </trkpt>
      <trkpt lat="34.882484" lon="-84.19882">
        <ele>532.540721</ele>
        <time>2026-09-20T07:54:16.000Z</time>
      </trkpt>
      <trkpt lat="34.882596" lon="-84.198029">
        <ele>532.592954</ele>
        <time>2026-09-20T07:54:23.000Z</time>
      </trkpt>
      <trkpt lat="34.882651" lon="-84.197867">
        <ele>532.60317</ele>
        <time>2026-09-20T07:54:25.000Z</time>
      </trkpt>
      <trkpt lat="34.882796" lon="-84.19763">
        <ele>532.667881</ele>
        <time>2026-09-20T07:54:28.000Z</time>
      </trkpt>
      <trkpt lat="34.882995" lon="-84.197414">
        <ele>532.79199</ele>
        <time>2026-09-20T07:54:31.000Z</time>
      </trkpt>
      <trkpt lat="34.885797" lon="-84.195228">
        <ele>534.529462</ele>
        <time>2026-09-20T07:55:08.000Z</time>
      </trkpt>
      <trkpt lat="34.885934" lon="-84.195069">
        <ele>534.435702</ele>
        <time>2026-09-20T07:55:10.000Z</time>
      </trkpt>
      <trkpt lat="34.886097" lon="-84.194825">
        <ele>534.299553</ele>
        <time>2026-09-20T07:55:13.000Z</time>
      </trkpt>
      <trkpt lat="34.886569" lon="-84.193957">
        <ele>533.864406</ele>
        <time>2026-09-20T07:55:22.000Z</time>
      </trkpt>
      <trkpt lat="34.886777" lon="-84.193362">
        <ele>533.629164</ele>
        <time>2026-09-20T07:55:28.000Z</time>
      </trkpt>
      <trkpt lat="34.886812" lon="-84.19318">
        <ele>533.589676</ele>
        <time>2026-09-20T07:55:30.000Z</time>
      </trkpt>
      <trkpt lat="34.886816" lon="-84.192943">
        <ele>533.542016</ele>
        <time>2026-09-20T07:55:32.000Z</time>
      </trkpt>
      <trkpt lat="34.886759" lon="-84.192529">
        <ele>533.451605</ele>
        <time>2026-09-20T07:55:36.000Z</time>
      </trkpt>
      <trkpt lat="34.886542" lon="-84.191619">
        <ele>533.258445</ele>
        <time>2026-09-20T07:55:45.000Z</time>
      </trkpt>
      <trkpt lat="34.886547" lon="-84.191297">
        <ele>533.155534</ele>
        <time>2026-09-20T07:55:48.000Z</time>
      </trkpt>
      <trkpt lat="34.886601" lon="-84.19106">
        <ele>532.994958</ele>
        <time>2026-09-20T07:55:50.000Z</time>
      </trkpt>
      <trkpt lat="34.886924" lon="-84.190048">
        <ele>532.291989</ele>
        <time>2026-09-20T07:56:00.000Z</time>
      </trkpt>
      <trkpt lat="34.886928" lon="-84.190025">
        <ele>532.272491</ele>
        <time>2026-09-20T07:56:00.000Z</time>
      </trkpt>
      <trkpt lat="34.887143" lon="-84.189354">
        <ele>531.805537</ele>
        <time>2026-09-20T07:56:07.000Z</time>
      </trkpt>
      <trkpt lat="34.887283" lon="-84.188658">
        <ele>531.531343</ele>
        <time>2026-09-20T07:56:14.000Z</time>
      </trkpt>
      <trkpt lat="34.887323" lon="-84.188376">
        <ele>531.428433</ele>
        <time>2026-09-20T07:56:17.000Z</time>
      </trkpt>
      <trkpt lat="34.887342" lon="-84.187759">
        <ele>531.197858</ele>
        <time>2026-09-20T07:56:23.000Z</time>
      </trkpt>
      <trkpt lat="34.887302" lon="-84.18718">
        <ele>530.978125</ele>
        <time>2026-09-20T07:56:28.000Z</time>
      </trkpt>
      <trkpt lat="34.887159" lon="-84.186404">
        <ele>530.699185</ele>
        <time>2026-09-20T07:56:35.000Z</time>
      </trkpt>
      <trkpt lat="34.886526" lon="-84.183782">
        <ele>529.760847</ele>
        <time>2026-09-20T07:57:00.000Z</time>
      </trkpt>
      <trkpt lat="34.88637" lon="-84.182834">
        <ele>529.57006</ele>
        <time>2026-09-20T07:57:09.000Z</time>
      </trkpt>
      <trkpt lat="34.886299" lon="-84.182316">
        <ele>530.161026</ele>
        <time>2026-09-20T07:57:14.000Z</time>
      </trkpt>
      <trkpt lat="34.886225" lon="-84.181575">
        <ele>530.982695</ele>
        <time>2026-09-20T07:57:21.000Z</time>
      </trkpt>
      <trkpt lat="34.885922" lon="-84.17907">
        <ele>538.041662</ele>
        <time>2026-09-20T07:57:44.000Z</time>
      </trkpt>
      <trkpt lat="34.885754" lon="-84.177558">
        <ele>543.656461</ele>
        <time>2026-09-20T07:57:58.000Z</time>
      </trkpt>
      <trkpt lat="34.885594" lon="-84.176304">
        <ele>548.401325</ele>
        <time>2026-09-20T07:58:10.000Z</time>
      </trkpt>
      <trkpt lat="34.885471" lon="-84.175625">
        <ele>551.22012</ele>
        <time>2026-09-20T07:58:16.000Z</time>
      </trkpt>
      <trkpt lat="34.885365" lon="-84.17526">
        <ele>552.89417</ele>
        <time>2026-09-20T07:58:20.000Z</time>
      </trkpt>
      <trkpt lat="34.885213" lon="-84.174862">
        <ele>554.66521</ele>
        <time>2026-09-20T07:58:24.000Z</time>
      </trkpt>
      <trkpt lat="34.884856" lon="-84.17418">
        <ele>558.125073</ele>
        <time>2026-09-20T07:58:31.000Z</time>
      </trkpt>
      <trkpt lat="34.884139" lon="-84.173181">
        <ele>564.338316</ele>
        <time>2026-09-20T07:58:43.000Z</time>
      </trkpt>
      <trkpt lat="34.883866" lon="-84.17276">
        <ele>566.782957</ele>
        <time>2026-09-20T07:58:48.000Z</time>
      </trkpt>
      <trkpt lat="34.883631" lon="-84.17228">
        <ele>567.28639</ele>
        <time>2026-09-20T07:58:53.000Z</time>
      </trkpt>
      <trkpt lat="34.883407" lon="-84.171694">
        <ele>567.448368</ele>
        <time>2026-09-20T07:58:59.000Z</time>
      </trkpt>
      <trkpt lat="34.882574" lon="-84.169163">
        <ele>563.61084</ele>
        <time>2026-09-20T07:59:24.000Z</time>
      </trkpt>
      <trkpt lat="34.882366" lon="-84.168485">
        <ele>561.743463</ele>
        <time>2026-09-20T07:59:31.000Z</time>
      </trkpt>
      <trkpt lat="34.881703" lon="-84.16522">
        <ele>552.276665</ele>
        <time>2026-09-20T08:00:02.000Z</time>
      </trkpt>
      <trkpt lat="34.881671" lon="-84.16493">
        <ele>551.4224</ele>
        <time>2026-09-20T08:00:05.000Z</time>
      </trkpt>
      <trkpt lat="34.88168" lon="-84.164455">
        <ele>550.079769</ele>
        <time>2026-09-20T08:00:09.000Z</time>
      </trkpt>
      <trkpt lat="34.881739" lon="-84.163663">
        <ele>548.543297</ele>
        <time>2026-09-20T08:00:16.000Z</time>
      </trkpt>
      <trkpt lat="34.881971" lon="-84.161897">
        <ele>546.178188</ele>
        <time>2026-09-20T08:00:32.000Z</time>
      </trkpt>
      <trkpt lat="34.88173" lon="-84.163669">
        <ele>548.192708</ele>
        <time>2026-09-20T08:00:48.000Z</time>
      </trkpt>
      <trkpt lat="34.881671" lon="-84.164458">
        <ele>550.237702</ele>
        <time>2026-09-20T08:00:55.000Z</time>
      </trkpt>
      <trkpt lat="34.881676" lon="-84.164929">
        <ele>551.531614</ele>
        <time>2026-09-20T08:00:59.000Z</time>
      </trkpt>
      <trkpt lat="34.88169" lon="-84.165228">
        <ele>552.354851</ele>
        <time>2026-09-20T08:01:02.000Z</time>
      </trkpt>
      <trkpt lat="34.882364" lon="-84.168487">
        <ele>561.679674</ele>
        <time>2026-09-20T08:01:33.000Z</time>
      </trkpt>
      <trkpt lat="34.882569" lon="-84.169165">
        <ele>563.567179</ele>
        <time>2026-09-20T08:01:40.000Z</time>
      </trkpt>
      <trkpt lat="34.883399" lon="-84.171696">
        <ele>568.210067</ele>
        <time>2026-09-20T08:02:05.000Z</time>
      </trkpt>
      <trkpt lat="34.883618" lon="-84.172288">
        <ele>568.083406</ele>
        <time>2026-09-20T08:02:11.000Z</time>
      </trkpt>
      <trkpt lat="34.883868" lon="-84.172766">
        <ele>565.89399</ele>
        <time>2026-09-20T08:02:16.000Z</time>
      </trkpt>
      <trkpt lat="34.884139" lon="-84.173174">
        <ele>563.864095</ele>
        <time>2026-09-20T08:02:21.000Z</time>
      </trkpt>
      <trkpt lat="34.884849" lon="-84.174187">
        <ele>558.401389</ele>
        <time>2026-09-20T08:02:33.000Z</time>
      </trkpt>
      <trkpt lat="34.885222" lon="-84.174863">
        <ele>554.688608</ele>
        <time>2026-09-20T08:02:40.000Z</time>
      </trkpt>
      <trkpt lat="34.885362" lon="-84.175243">
        <ele>552.711829</ele>
        <time>2026-09-20T08:02:44.000Z</time>
      </trkpt>
      <trkpt lat="34.885474" lon="-84.175629">
        <ele>550.843293</ele>
        <time>2026-09-20T08:02:48.000Z</time>
      </trkpt>
      <trkpt lat="34.88559" lon="-84.176306">
        <ele>548.296625</ele>
        <time>2026-09-20T08:02:54.000Z</time>
      </trkpt>
      <trkpt lat="34.885738" lon="-84.177565">
        <ele>543.844583</ele>
        <time>2026-09-20T08:03:06.000Z</time>
      </trkpt>
      <trkpt lat="34.885928" lon="-84.179073">
        <ele>538.066954</ele>
        <time>2026-09-20T08:03:20.000Z</time>
      </trkpt>
      <trkpt lat="34.886212" lon="-84.181591">
        <ele>530.804993</ele>
        <time>2026-09-20T08:03:43.000Z</time>
      </trkpt>
      <trkpt lat="34.886307" lon="-84.18232">
        <ele>529.311517</ele>
        <time>2026-09-20T08:03:50.000Z</time>
      </trkpt>
      <trkpt lat="34.886379" lon="-84.182837">
        <ele>529.5199</ele>
        <time>2026-09-20T08:03:55.000Z</time>
      </trkpt>
      <trkpt lat="34.886527" lon="-84.183795">
        <ele>529.901588</ele>
        <time>2026-09-20T08:04:04.000Z</time>
      </trkpt>
      <trkpt lat="34.887167" lon="-84.186411">
        <ele>530.519342</ele>
        <time>2026-09-20T08:04:29.000Z</time>
      </trkpt>
      <trkpt lat="34.887298" lon="-84.187168">
        <ele>530.867312</ele>
        <time>2026-09-20T08:04:36.000Z</time>
      </trkpt>
      <trkpt lat="34.88735" lon="-84.187755">
        <ele>531.15523</ele>
        <time>2026-09-20T08:04:41.000Z</time>
      </trkpt>
      <trkpt lat="34.887323" lon="-84.188392">
        <ele>531.45732</ele>
        <time>2026-09-20T08:04:47.000Z</time>
      </trkpt>
      <trkpt lat="34.887289" lon="-84.188662">
        <ele>531.592158</ele>
        <time>2026-09-20T08:04:49.000Z</time>
      </trkpt>
      <trkpt lat="34.887141" lon="-84.189348">
        <ele>532.012541</ele>
        <time>2026-09-20T08:04:55.000Z</time>
      </trkpt>
      <trkpt lat="34.886927" lon="-84.190029">
        <ele>532.436762</ele>
        <time>2026-09-20T08:05:02.000Z</time>
      </trkpt>
      <trkpt lat="34.886926" lon="-84.190055">
        <ele>532.454473</ele>
        <time>2026-09-20T08:05:02.000Z</time>
      </trkpt>
      <trkpt lat="34.886601" lon="-84.191074">
        <ele>532.961242</ele>
        <time>2026-09-20T08:05:12.000Z</time>
      </trkpt>
      <trkpt lat="34.886539" lon="-84.191306">
        <ele>533.008487</ele>
        <time>2026-09-20T08:05:14.000Z</time>
      </trkpt>
      <trkpt lat="34.886552" lon="-84.191626">
        <ele>533.068976</ele>
        <time>2026-09-20T08:05:17.000Z</time>
      </trkpt>
      <trkpt lat="34.886753" lon="-84.192519">
        <ele>533.246949</ele>
        <time>2026-09-20T08:05:25.000Z</time>
      </trkpt>
      <trkpt lat="34.886825" lon="-84.192953">
        <ele>533.360454</ele>
        <time>2026-09-20T08:05:29.000Z</time>
      </trkpt>
      <trkpt lat="34.886819" lon="-84.193178">
        <ele>533.500416</ele>
        <time>2026-09-20T08:05:31.000Z</time>
      </trkpt>
      <trkpt lat="34.886779" lon="-84.193359">
        <ele>533.616358</ele>
        <time>2026-09-20T08:05:33.000Z</time>
      </trkpt>
      <trkpt lat="34.886558" lon="-84.193948">
        <ele>534.009105</ele>
        <time>2026-09-20T08:05:39.000Z</time>
      </trkpt>
      <trkpt lat="34.886089" lon="-84.194826">
        <ele>534.638697</ele>
        <time>2026-09-20T08:05:49.000Z</time>
      </trkpt>
      <trkpt lat="34.885925" lon="-84.19507">
        <ele>534.530282</ele>
        <time>2026-09-20T08:05:52.000Z</time>
      </trkpt>
      <trkpt lat="34.88579" lon="-84.195228">
        <ele>534.443293</ele>
        <time>2026-09-20T08:05:54.000Z</time>
      </trkpt>
      <trkpt lat="34.882997" lon="-84.197408">
        <ele>532.712752</ele>
        <time>2026-09-20T08:06:31.000Z</time>
      </trkpt>
      <trkpt lat="34.882786" lon="-84.197618">
        <ele>532.692964</ele>
        <time>2026-09-20T08:06:34.000Z</time>
      </trkpt>
      <trkpt lat="34.882642" lon="-84.197873">
        <ele>532.674429</ele>
        <time>2026-09-20T08:06:37.000Z</time>
      </trkpt>
      <trkpt lat="34.882588" lon="-84.198022">
        <ele>532.664929</ele>
        <time>2026-09-20T08:06:38.000Z</time>
      </trkpt>
      <trkpt lat="34.882469" lon="-84.198832">
        <ele>532.616461</ele>
        <time>2026-09-20T08:06:46.000Z</time>
      </trkpt>
      <trkpt lat="34.882406" lon="-84.199092">
        <ele>532.599067</ele>
        <time>2026-09-20T08:06:48.000Z</time>
      </trkpt>
      <trkpt lat="34.881798" lon="-84.200295">
        <ele>532.017655</ele>
        <time>2026-09-20T08:07:01.000Z</time>
      </trkpt>
      <trkpt lat="34.881687" lon="-84.200573">
        <ele>531.878335</ele>
        <time>2026-09-20T08:07:04.000Z</time>
      </trkpt>
      <trkpt lat="34.881601" lon="-84.200936">
        <ele>531.712222</ele>
        <time>2026-09-20T08:07:07.000Z</time>
      </trkpt>
      <trkpt lat="34.881326" lon="-84.202822">
        <ele>529.229251</ele>
        <time>2026-09-20T08:07:24.000Z</time>
      </trkpt>
      <trkpt lat="34.881305" lon="-84.203097">
        <ele>528.83135</ele>
        <time>2026-09-20T08:07:27.000Z</time>
      </trkpt>
      <trkpt lat="34.881317" lon="-84.203488">
        <ele>528.117919</ele>
        <time>2026-09-20T08:07:31.000Z</time>
      </trkpt>
      <trkpt lat="34.881536" lon="-84.205406">
        <ele>523.79647</ele>
        <time>2026-09-20T08:07:49.000Z</time>
      </trkpt>
      <trkpt lat="34.881594" lon="-84.205866">
        <ele>523.274087</ele>
        <time>2026-09-20T08:07:53.000Z</time>
      </trkpt>
      <trkpt lat="34.881849" lon="-84.207918">
        <ele>521.982568</ele>
        <time>2026-09-20T08:08:12.000Z</time>
      </trkpt>
      <trkpt lat="34.881863" lon="-84.208465">
        <ele>522.628507</ele>
        <time>2026-09-20T08:08:17.000Z</time>
      </trkpt>
      <trkpt lat="34.881856" lon="-84.208765">
        <ele>522.966991</ele>
        <time>2026-09-20T08:08:20.000Z</time>
      </trkpt>
      <trkpt lat="34.881784" lon="-84.209342">
        <ele>523.642738</ele>
        <time>2026-09-20T08:08:25.000Z</time>
      </trkpt>
      <trkpt lat="34.881522" lon="-84.210255">
        <ele>525.464838</ele>
        <time>2026-09-20T08:08:34.000Z</time>
      </trkpt>
      <trkpt lat="34.881168" lon="-84.211703">
        <ele>529.426303</ele>
        <time>2026-09-20T08:08:48.000Z</time>
      </trkpt>
      <trkpt lat="34.881038" lon="-84.212199">
        <ele>529.925422</ele>
        <time>2026-09-20T08:08:53.000Z</time>
      </trkpt>
      <trkpt lat="34.880832" lon="-84.213221">
        <ele>529.906421</ele>
        <time>2026-09-20T08:09:03.000Z</time>
      </trkpt>
      <trkpt lat="34.880572" lon="-84.214755">
        <ele>531.405423</ele>
        <time>2026-09-20T08:09:17.000Z</time>
      </trkpt>
      <trkpt lat="34.880375" lon="-84.215947">
        <ele>533.869452</ele>
        <time>2026-09-20T08:09:28.000Z</time>
      </trkpt>
      <trkpt lat="34.880225" lon="-84.216753">
        <ele>535.873963</ele>
        <time>2026-09-20T08:09:36.000Z</time>
      </trkpt>
      <trkpt lat="34.880037" lon="-84.217293">
        <ele>537.361545</ele>
        <time>2026-09-20T08:09:41.000Z</time>
      </trkpt>
      <trkpt lat="34.879917" lon="-84.217521">
        <ele>538.077151</ele>
        <time>2026-09-20T08:09:43.000Z</time>
      </trkpt>
      <trkpt lat="34.879031" lon="-84.218899">
        <ele>539.80848</ele>
        <time>2026-09-20T08:09:59.000Z</time>
      </trkpt>
      <trkpt lat="34.878519" lon="-84.219749">
        <ele>539.690821</ele>
        <time>2026-09-20T08:10:09.000Z</time>
      </trkpt>
      <trkpt lat="34.878321" lon="-84.220189">
        <ele>539.962478</ele>
        <time>2026-09-20T08:10:14.000Z</time>
      </trkpt>
      <trkpt lat="34.878165" lon="-84.220673">
        <ele>540.331619</ele>
        <time>2026-09-20T08:10:19.000Z</time>
      </trkpt>
      <trkpt lat="34.878105" lon="-84.221016">
        <ele>540.594781</ele>
        <time>2026-09-20T08:10:22.000Z</time>
      </trkpt>
      <trkpt lat="34.877823" lon="-84.224109">
        <ele>546.98021</ele>
        <time>2026-09-20T08:10:50.000Z</time>
      </trkpt>
      <trkpt lat="34.877825" lon="-84.224301">
        <ele>547.023119</ele>
        <time>2026-09-20T08:10:52.000Z</time>
      </trkpt>
      <trkpt lat="34.877988" lon="-84.224952">
        <ele>547.002737</ele>
        <time>2026-09-20T08:10:58.000Z</time>
      </trkpt>
      <trkpt lat="34.878001" lon="-84.225174">
        <ele>546.996396</ele>
        <time>2026-09-20T08:11:00.000Z</time>
      </trkpt>
      <trkpt lat="34.877906" lon="-84.225724">
        <ele>546.979333</ele>
        <time>2026-09-20T08:11:05.000Z</time>
      </trkpt>
      <trkpt lat="34.877656" lon="-84.226612">
        <ele>545.522347</ele>
        <time>2026-09-20T08:11:14.000Z</time>
      </trkpt>
      <trkpt lat="34.877562" lon="-84.227043">
        <ele>543.899254</ele>
        <time>2026-09-20T08:11:18.000Z</time>
      </trkpt>
      <trkpt lat="34.877511" lon="-84.228919">
        <ele>537.833197</ele>
        <time>2026-09-20T08:11:35.000Z</time>
      </trkpt>
      <trkpt lat="34.877613" lon="-84.229559">
        <ele>536.656464</ele>
        <time>2026-09-20T08:11:41.000Z</time>
      </trkpt>
      <trkpt lat="34.877894" lon="-84.23093">
        <ele>535.183979</ele>
        <time>2026-09-20T08:11:54.000Z</time>
      </trkpt>
      <trkpt lat="34.87792" lon="-84.23197">
        <ele>536.299135</ele>
        <time>2026-09-20T08:12:03.000Z</time>
      </trkpt>
      <trkpt lat="34.877852" lon="-84.232967">
        <ele>538.033811</ele>
        <time>2026-09-20T08:12:12.000Z</time>
      </trkpt>
      <trkpt lat="34.877777" lon="-84.233354">
        <ele>539.607855</ele>
        <time>2026-09-20T08:12:16.000Z</time>
      </trkpt>
      <trkpt lat="34.877641" lon="-84.233749">
        <ele>541.354641</ele>
        <time>2026-09-20T08:12:20.000Z</time>
      </trkpt>
      <trkpt lat="34.877434" lon="-84.23419">
        <ele>543.3384</ele>
        <time>2026-09-20T08:12:25.000Z</time>
      </trkpt>
      <trkpt lat="34.877224" lon="-84.234516">
        <ele>544.948284</ele>
        <time>2026-09-20T08:12:29.000Z</time>
      </trkpt>
      <trkpt lat="34.876758" lon="-84.235175">
        <ele>546.763055</ele>
        <time>2026-09-20T08:12:37.000Z</time>
      </trkpt>
      <trkpt lat="34.876524" lon="-84.23562">
        <ele>547.565403</ele>
        <time>2026-09-20T08:12:42.000Z</time>
      </trkpt>
      <trkpt lat="34.876381" lon="-84.236078">
        <ele>548.294997</ele>
        <time>2026-09-20T08:12:46.000Z</time>
      </trkpt>
      <trkpt lat="34.876309" lon="-84.237408">
        <ele>547.10198</ele>
        <time>2026-09-20T08:12:58.000Z</time>
      </trkpt>
      <trkpt lat="34.876229" lon="-84.238437">
        <ele>544.687821</ele>
        <time>2026-09-20T08:13:07.000Z</time>
      </trkpt>
      <trkpt lat="34.876159" lon="-84.238847">
        <ele>543.849642</ele>
        <time>2026-09-20T08:13:11.000Z</time>
      </trkpt>
      <trkpt lat="34.876033" lon="-84.239503">
        <ele>543.422821</ele>
        <time>2026-09-20T08:13:17.000Z</time>
      </trkpt>
      <trkpt lat="34.875934" lon="-84.23996">
        <ele>543.124348</ele>
        <time>2026-09-20T08:13:21.000Z</time>
      </trkpt>
      <trkpt lat="34.875445" lon="-84.242233">
        <ele>544.546583</ele>
        <time>2026-09-20T08:13:42.000Z</time>
      </trkpt>
      <trkpt lat="34.875425" lon="-84.2423">
        <ele>544.633946</ele>
        <time>2026-09-20T08:13:43.000Z</time>
      </trkpt>
      <trkpt lat="34.875134" lon="-84.243574">
        <ele>546.297048</ele>
        <time>2026-09-20T08:13:55.000Z</time>
      </trkpt>
      <trkpt lat="34.875079" lon="-84.243921">
        <ele>546.646998</ele>
        <time>2026-09-20T08:13:58.000Z</time>
      </trkpt>
      <trkpt lat="34.875084" lon="-84.244004">
        <ele>546.730222</ele>
        <time>2026-09-20T08:13:59.000Z</time>
      </trkpt>
      <trkpt lat="34.875125" lon="-84.244157">
        <ele>546.890408</ele>
        <time>2026-09-20T08:14:00.000Z</time>
      </trkpt>
      <trkpt lat="34.875181" lon="-84.244293">
        <ele>547.037484</ele>
        <time>2026-09-20T08:14:01.000Z</time>
      </trkpt>
      <trkpt lat="34.875353" lon="-84.244461">
        <ele>547.304283</ele>
        <time>2026-09-20T08:14:03.000Z</time>
      </trkpt>
      <trkpt lat="34.875556" lon="-84.24456">
        <ele>547.564461</ele>
        <time>2026-09-20T08:14:05.000Z</time>
      </trkpt>
      <trkpt lat="34.875859" lon="-84.244639">
        <ele>547.83214</ele>
        <time>2026-09-20T08:14:08.000Z</time>
      </trkpt>
      <trkpt lat="34.876395" lon="-84.244814">
        <ele>547.363169</ele>
        <time>2026-09-20T08:14:14.000Z</time>
      </trkpt>
      <trkpt lat="34.876535" lon="-84.244863">
        <ele>547.228404</ele>
        <time>2026-09-20T08:14:16.000Z</time>
      </trkpt>
      <trkpt lat="34.876997" lon="-84.245032">
        <ele>546.825341</ele>
        <time>2026-09-20T08:14:21.000Z</time>
      </trkpt>
      <trkpt lat="34.877359" lon="-84.245157">
        <ele>546.508152</ele>
        <time>2026-09-20T08:14:25.000Z</time>
      </trkpt>
      <trkpt lat="34.877694" lon="-84.245336">
        <ele>546.504767</ele>
        <time>2026-09-20T08:14:29.000Z</time>
      </trkpt>
      <trkpt lat="34.878124" lon="-84.245603">
        <ele>546.965552</ele>
        <time>2026-09-20T08:14:34.000Z</time>
      </trkpt>
      <trkpt lat="34.878164" lon="-84.245628">
        <ele>547.007793</ele>
        <time>2026-09-20T08:14:34.000Z</time>
      </trkpt>
      <trkpt lat="34.878739" lon="-84.246024">
        <ele>547.621926</ele>
        <time>2026-09-20T08:14:41.000Z</time>
      </trkpt>
      <trkpt lat="34.879314" lon="-84.246543">
        <ele>549.090568</ele>
        <time>2026-09-20T08:14:49.000Z</time>
      </trkpt>
      <trkpt lat="34.879872" lon="-84.24715">
        <ele>551.887445</ele>
        <time>2026-09-20T08:14:57.000Z</time>
      </trkpt>
      <trkpt lat="34.880469" lon="-84.247973">
        <ele>555.142014</ele>
        <time>2026-09-20T08:15:07.000Z</time>
      </trkpt>
      <trkpt lat="34.880826" lon="-84.248602">
        <ele>556.718221</ele>
        <time>2026-09-20T08:15:14.000Z</time>
      </trkpt>
      <trkpt lat="34.881107" lon="-84.249135">
        <ele>558.016553</ele>
        <time>2026-09-20T08:15:20.000Z</time>
      </trkpt>
      <trkpt lat="34.881476" lon="-84.249792">
        <ele>558.89377</ele>
        <time>2026-09-20T08:15:27.000Z</time>
      </trkpt>
      <trkpt lat="34.882266" lon="-84.251205">
        <ele>554.627827</ele>
        <time>2026-09-20T08:15:43.000Z</time>
      </trkpt>
      <trkpt lat="34.883128" lon="-84.252819">
        <ele>547.01756</ele>
        <time>2026-09-20T08:16:01.000Z</time>
      </trkpt>
      <trkpt lat="34.883177" lon="-84.252896">
        <ele>546.651764</ele>
        <time>2026-09-20T08:16:02.000Z</time>
      </trkpt>
      <trkpt lat="34.883587" lon="-84.253705">
        <ele>544.741745</ele>
        <time>2026-09-20T08:16:11.000Z</time>
      </trkpt>
      <trkpt lat="34.884138" lon="-84.254813">
        <ele>545.364242</ele>
        <time>2026-09-20T08:16:23.000Z</time>
      </trkpt>
      <trkpt lat="34.884329" lon="-84.255324">
        <ele>545.651324</ele>
        <time>2026-09-20T08:16:28.000Z</time>
      </trkpt>
      <trkpt lat="34.884504" lon="-84.255848">
        <ele>545.987921</ele>
        <time>2026-09-20T08:16:33.000Z</time>
      </trkpt>
      <trkpt lat="34.884641" lon="-84.2564">
        <ele>546.330328</ele>
        <time>2026-09-20T08:16:38.000Z</time>
      </trkpt>
      <trkpt lat="34.884778" lon="-84.256996">
        <ele>546.701063</ele>
        <time>2026-09-20T08:16:44.000Z</time>
      </trkpt>
      <trkpt lat="34.88489" lon="-84.257641">
        <ele>546.922528</ele>
        <time>2026-09-20T08:16:50.000Z</time>
      </trkpt>
      <trkpt lat="34.885198" lon="-84.259707">
        <ele>547.054547</ele>
        <time>2026-09-20T08:17:09.000Z</time>
      </trkpt>
      <trkpt lat="34.885556" lon="-84.262111">
        <ele>546.657898</ele>
        <time>2026-09-20T08:17:31.000Z</time>
      </trkpt>
      <trkpt lat="34.885598" lon="-84.262384">
        <ele>546.624331</ele>
        <time>2026-09-20T08:17:34.000Z</time>
      </trkpt>
      <trkpt lat="34.885748" lon="-84.263321">
        <ele>546.509046</ele>
        <time>2026-09-20T08:17:43.000Z</time>
      </trkpt>
      <trkpt lat="34.885794" lon="-84.263787">
        <ele>546.473462</ele>
        <time>2026-09-20T08:17:47.000Z</time>
      </trkpt>
      <trkpt lat="34.885791" lon="-84.264105">
        <ele>546.788287</ele>
        <time>2026-09-20T08:17:50.000Z</time>
      </trkpt>
      <trkpt lat="34.885747" lon="-84.264597">
        <ele>547.266401</ele>
        <time>2026-09-20T08:17:55.000Z</time>
      </trkpt>
      <trkpt lat="34.885461" lon="-84.266526">
        <ele>550.146434</ele>
        <time>2026-09-20T08:18:13.000Z</time>
      </trkpt>
      <trkpt lat="34.885437" lon="-84.267205">
        <ele>551.847099</ele>
        <time>2026-09-20T08:18:19.000Z</time>
      </trkpt>
      <trkpt lat="34.885489" lon="-84.267618">
        <ele>552.927733</ele>
        <time>2026-09-20T08:18:23.000Z</time>
      </trkpt>
      <trkpt lat="34.885581" lon="-84.268379">
        <ele>555.106022</ele>
        <time>2026-09-20T08:18:30.000Z</time>
      </trkpt>
      <trkpt lat="34.885816" lon="-84.269345">
        <ele>558.533693</ele>
        <time>2026-09-20T08:18:39.000Z</time>
      </trkpt>
      <trkpt lat="34.886036" lon="-84.269959">
        <ele>560.835113</ele>
        <time>2026-09-20T08:18:45.000Z</time>
      </trkpt>
      <trkpt lat="34.886322" lon="-84.270463">
        <ele>560.565676</ele>
        <time>2026-09-20T08:18:51.000Z</time>
      </trkpt>
      <trkpt lat="34.886859" lon="-84.271219">
        <ele>557.675922</ele>
        <time>2026-09-20T08:19:00.000Z</time>
      </trkpt>
      <trkpt lat="34.887007" lon="-84.271439">
        <ele>556.829863</ele>
        <time>2026-09-20T08:19:03.000Z</time>
      </trkpt>
      <trkpt lat="34.887138" lon="-84.271652">
        <ele>556.097914</ele>
        <time>2026-09-20T08:19:05.000Z</time>
      </trkpt>
      <trkpt lat="34.887219" lon="-84.271864">
        <ele>555.432068</ele>
        <time>2026-09-20T08:19:07.000Z</time>
      </trkpt>
      <trkpt lat="34.88732" lon="-84.272174">
        <ele>553.41038</ele>
        <time>2026-09-20T08:19:10.000Z</time>
      </trkpt>
      <trkpt lat="34.887344" lon="-84.27237">
        <ele>552.180538</ele>
        <time>2026-09-20T08:19:12.000Z</time>
      </trkpt>
      <trkpt lat="34.887345" lon="-84.272738">
        <ele>549.86638</ele>
        <time>2026-09-20T08:19:15.000Z</time>
      </trkpt>
      <trkpt lat="34.887308" lon="-84.273095">
        <ele>547.459062</ele>
        <time>2026-09-20T08:19:18.000Z</time>
      </trkpt>
      <trkpt lat="34.88724" lon="-84.273324">
        <ele>546.027337</ele>
        <time>2026-09-20T08:19:20.000Z</time>
      </trkpt>
      <trkpt lat="34.886866" lon="-84.274199">
        <ele>539.914468</ele>
        <time>2026-09-20T08:19:29.000Z</time>
      </trkpt>
      <trkpt lat="34.88661" lon="-84.274741">
        <ele>536.512739</ele>
        <time>2026-09-20T08:19:35.000Z</time>
      </trkpt>
      <trkpt lat="34.886439" lon="-84.275029">
        <ele>534.44901</ele>
        <time>2026-09-20T08:19:38.000Z</time>
      </trkpt>
      <trkpt lat="34.886254" lon="-84.275281">
        <ele>532.652363</ele>
        <time>2026-09-20T08:19:41.000Z</time>
      </trkpt>
      <trkpt lat="34.88578" lon="-84.2759">
        <ele>528.343033</ele>
        <time>2026-09-20T08:19:49.000Z</time>
      </trkpt>
      <trkpt lat="34.883929" lon="-84.278196">
        <ele>516.304617</ele>
        <time>2026-09-20T08:20:18.000Z</time>
      </trkpt>
      <trkpt lat="34.883701" lon="-84.278493">
        <ele>515.025599</ele>
        <time>2026-09-20T08:20:22.000Z</time>
      </trkpt>
      <trkpt lat="34.883502" lon="-84.27884">
        <ele>513.691302</ele>
        <time>2026-09-20T08:20:26.000Z</time>
      </trkpt>
      <trkpt lat="34.882514" lon="-84.281511">
        <ele>510.549805</ele>
        <time>2026-09-20T08:20:53.000Z</time>
      </trkpt>
      <trkpt lat="34.882403" lon="-84.281756">
        <ele>510.725372</ele>
        <time>2026-09-20T08:20:56.000Z</time>
      </trkpt>
      <trkpt lat="34.8823" lon="-84.281911">
        <ele>510.857819</ele>
        <time>2026-09-20T08:20:58.000Z</time>
      </trkpt>
      <trkpt lat="34.882054" lon="-84.282116">
        <ele>511.08829</ele>
        <time>2026-09-20T08:21:01.000Z</time>
      </trkpt>
      <trkpt lat="34.881932" lon="-84.282183">
        <ele>511.191322</ele>
        <time>2026-09-20T08:21:02.000Z</time>
      </trkpt>
      <trkpt lat="34.881809" lon="-84.282248">
        <ele>511.297396</ele>
        <time>2026-09-20T08:21:03.000Z</time>
      </trkpt>
      <trkpt lat="34.881199" lon="-84.282453">
        <ele>512.23869</ele>
        <time>2026-09-20T08:21:10.000Z</time>
      </trkpt>
      <trkpt lat="34.880413" lon="-84.282739">
        <ele>514.1149</ele>
        <time>2026-09-20T08:21:19.000Z</time>
      </trkpt>
      <trkpt lat="34.87956" lon="-84.283084">
        <ele>516.610535</ele>
        <time>2026-09-20T08:21:29.000Z</time>
      </trkpt>
      <trkpt lat="34.878767" lon="-84.283386">
        <ele>519.930898</ele>
        <time>2026-09-20T08:21:38.000Z</time>
      </trkpt>
      <trkpt lat="34.878425" lon="-84.283458">
        <ele>521.352285</ele>
        <time>2026-09-20T08:21:42.000Z</time>
      </trkpt>
      <trkpt lat="34.878108" lon="-84.283446">
        <ele>522.662975</ele>
        <time>2026-09-20T08:21:46.000Z</time>
      </trkpt>
      <trkpt lat="34.877801" lon="-84.283365">
        <ele>524.441963</ele>
        <time>2026-09-20T08:21:49.000Z</time>
      </trkpt>
      <trkpt lat="34.877496" lon="-84.283192">
        <ele>526.441408</ele>
        <time>2026-09-20T08:21:53.000Z</time>
      </trkpt>
      <trkpt lat="34.877011" lon="-84.282883">
        <ele>529.724414</ele>
        <time>2026-09-20T08:21:59.000Z</time>
      </trkpt>
      <trkpt lat="34.876411" lon="-84.282563">
        <ele>533.758039</ele>
        <time>2026-09-20T08:22:06.000Z</time>
      </trkpt>
      <trkpt lat="34.876024" lon="-84.282424">
        <ele>534.744579</ele>
        <time>2026-09-20T08:22:10.000Z</time>
      </trkpt>
      <trkpt lat="34.875503" lon="-84.282333">
        <ele>536.00276</ele>
        <time>2026-09-20T08:22:16.000Z</time>
      </trkpt>
      <trkpt lat="34.875034" lon="-84.28232">
        <ele>537.135663</ele>
        <time>2026-09-20T08:22:21.000Z</time>
      </trkpt>
      <trkpt lat="34.874576" lon="-84.282323">
        <ele>538.146569</ele>
        <time>2026-09-20T08:22:26.000Z</time>
      </trkpt>
      <trkpt lat="34.874206" lon="-84.282386">
        <ele>538.083827</ele>
        <time>2026-09-20T08:22:30.000Z</time>
      </trkpt>
      <trkpt lat="34.873843" lon="-84.282534">
        <ele>538.020244</ele>
        <time>2026-09-20T08:22:34.000Z</time>
      </trkpt>
      <trkpt lat="34.873558" lon="-84.282779">
        <ele>537.963266</ele>
        <time>2026-09-20T08:22:38.000Z</time>
      </trkpt>
      <trkpt lat="34.873433" lon="-84.282923">
        <ele>537.933972</ele>
        <time>2026-09-20T08:22:40.000Z</time>
      </trkpt>
      <trkpt lat="34.873178" lon="-84.283283">
        <ele>537.868659</ele>
        <time>2026-09-20T08:22:44.000Z</time>
      </trkpt>
      <trkpt lat="34.872956" lon="-84.283683">
        <ele>537.358305</ele>
        <time>2026-09-20T08:22:48.000Z</time>
      </trkpt>
      <trkpt lat="34.872872" lon="-84.283916">
        <ele>537.017198</ele>
        <time>2026-09-20T08:22:50.000Z</time>
      </trkpt>
      <trkpt lat="34.872798" lon="-84.284204">
        <ele>536.636545</ele>
        <time>2026-09-20T08:22:53.000Z</time>
      </trkpt>
      <trkpt lat="34.872772" lon="-84.284506">
        <ele>536.234564</ele>
        <time>2026-09-20T08:22:56.000Z</time>
      </trkpt>
      <trkpt lat="34.872778" lon="-84.284734">
        <ele>535.919921</ele>
        <time>2026-09-20T08:22:58.000Z</time>
      </trkpt>
      <trkpt lat="34.872716" lon="-84.284671">
        <ele>535.782923</ele>
        <time>2026-09-20T08:22:59.000Z</time>
      </trkpt>
      <trkpt lat="34.872658" lon="-84.284571">
        <ele>535.622729</ele>
        <time>2026-09-20T08:23:00.000Z</time>
      </trkpt>
      <trkpt lat="34.872474" lon="-84.283627">
        <ele>532.932703</ele>
        <time>2026-09-20T08:23:09.000Z</time>
      </trkpt>
      <trkpt lat="34.872382" lon="-84.28326">
        <ele>531.252751</ele>
        <time>2026-09-20T08:23:13.000Z</time>
      </trkpt>
      <trkpt lat="34.872195" lon="-84.282749">
        <ele>528.780716</ele>
        <time>2026-09-20T08:23:18.000Z</time>
      </trkpt>
      <trkpt lat="34.871989" lon="-84.28234">
        <ele>526.767338</ele>
        <time>2026-09-20T08:23:22.000Z</time>
      </trkpt>
      <trkpt lat="34.871753" lon="-84.281977">
        <ele>525.107035117</ele>
        <time>2026-09-20T08:23:26.000Z</time>
      </trkpt>
      <trkpt lat="34.871231" lon="-84.281272">
        <ele>521.702751598</ele>
        <time>2026-09-20T08:23:35.000Z</time>
      </trkpt>
      <trkpt lat="34.870845" lon="-84.280828">
        <ele>519.383727962</ele>
        <time>2026-09-20T08:23:41.000Z</time>
      </trkpt>
    </trkseg>
  </trk>
</gpx>

<!--
Performance optimized by W3 Total Cache. Learn more: https://www.boldgrid.com/w3-total-cache/?utm_source=w3tc&utm_medium=footer_comment&utm_campaign=free_plugin

Page Caching using Disk: Enhanced{w3tc_pagecache_reject_reason} 

Served from: www.aquabike.world @ 2026-05-10 19:59:14 by W3 Total Cache
-->